Twig, Minnesota
Current Conditions -  °F | °C
As of 9:55 PM on Sunday 21 Dec 2014 (Local Time) from KDLH Reporting Station
Haze Haze  
Wind Chill: 28°   Ceiling: 200
Heat Index: 34°   Visibility: 1.2mi
Dew Point: 32°   Wind: 7mph
Humidity: 92%   Direction: 150°SSE
Pressure: 29.71"   Gusts: NA
Location:  46.89°N, 92.36°W
Report Text: KDLH 220355Z 15006KT 1 1/4SM BR OVC002 01/00 A2971 RMK AO2 TWR VIS 2 SLP078 T00110000
Loading
Personal Weather Stations






























Interactive Weather Map New forecast layout! Learn more

10-Day Weather Forecast

Advertisements
Track Severe Weather on mobile